Terminal Aerodrome Forecast
Issued by NWS

Home | Current Version | Previous Version | Text Only | Print | Product List | Glossary On
Versions: 1 2 3 4 5 6 7 8 9 10 11 12 13 14 15 16
777
FTUS42 TJSJ 251921 AAA
TAFJBQ
TAF AMD
TJBQ 251921Z 2519/2618 08012G20KT P6SM VCTS FEW020CB BKN040 BKN120
     FM252300 10006KT P6SM FEW028 SCT050 SCT150
     FM261400 07013KT P6SM SCT025
      AMD NOT SKED 2602/2611=

USA.gov is the U.S. government's official web portal to all federal, state and local government web resources and services.